Time;durP1;ratioP1;P1;durP2;ratioP2;P2;SDS_P1;SDS_P2;PMS_P1;PMS_P2;Temp;Humidity;BMP_temperature;BMP_pressure;BME280_temperature;BME280_humidity;BME280_pressure;Samples;Min_cycle;Max_cycle;Signal;HPM_P1;HPM_P2
2022/01/28 00:02:56;;;;;;;27.00;13.27;;;;;;;0.37;64.11;100269.94;5053815;28;20032;-47
2022/01/28 00:04:58;;;;;;;25.20;12.30;;;;;;;0.31;64.16;100267.81;5050665;28;20106;-47
2022/01/28 00:07:23;;;;;;;26.58;12.18;;;;;;;0.44;65.72;100269.44;5053511;28;20036;-48
2022/01/28 00:09:49;;;;;;;22.83;11.88;;;;;;;0.51;65.09;100262.75;5053348;28;20080;-47
2022/01/28 00:12:14;;;;;;;22.77;11.85;;;;;;;0.63;63.24;100261.75;5053356;28;20037;-51
2022/01/28 00:39:25;;;;;;;30.02;12.63;;;;;;;0.34;63.69;100245.78;5053310;28;20040;-50
2022/01/28 00:41:50;;;;;;;31.23;13.40;;;;;;;0.46;63.80;100243.94;5053156;28;20017;-49
2022/01/28 00:44:16;;;;;;;29.95;12.05;;;;;;;0.38;64.11;100241.97;5052814;28;20087;-49
2022/01/28 00:46:41;;;;;;;25.73;12.98;;;;;;;0.23;64.43;100240.59;5053128;28;20040;-53
2022/01/28 00:49:07;;;;;;;24.08;12.18;;;;;;;0.29;65.01;100235.69;5052905;28;20029;-49
2022/01/28 00:51:32;;;;;;;27.90;13.13;;;;;;;0.44;67.19;100232.78;5052546;28;20021;-50
2022/01/28 00:53:58;;;;;;;28.98;12.73;;;;;;;0.35;63.10;100237.00;5052800;28;20040;-50
2022/01/28 00:56:23;;;;;;;29.02;12.55;;;;;;;0.12;64.46;100225.78;5053273;28;20531;-49
2022/01/28 00:58:48;;;;;;;26.70;12.35;;;;;;;0.58;63.11;100216.75;5053103;28;20021;-51
2022/01/28 01:01:14;;;;;;;28.63;12.85;;;;;;;0.41;64.45;100220.78;5052934;28;20503;-50
2022/01/28 01:03:39;;;;;;;25.15;12.00;;;;;;;0.28;63.75;100209.66;5052847;28;20119;-47
2022/01/28 01:06:05;;;;;;;24.83;11.75;;;;;;;0.23;63.44;100209.19;5052615;28;20090;-49
2022/01/28 01:08:30;;;;;;;23.55;11.95;;;;;;;0.22;63.38;100203.13;5052501;28;20066;-37
2022/01/28 01:10:56;;;;;;;26.05;11.38;;;;;;;0.24;63.53;100206.44;5052570;28;20206;-36
2022/01/28 01:13:21;;;;;;;25.10;10.88;;;;;;;0.50;62.65;100206.91;5052564;28;20397;-36
2022/01/28 01:15:52;;;;;;;24.95;11.32;;;;;;;0.41;62.48;100196.38;5052517;28;20025;-36
2022/01/28 01:18:25;;;;;;;21.77;10.82;;;;;;;0.44;64.65;100191.72;5052759;28;20090;-36
2022/01/28 01:20:59;;;;;;;23.80;11.88;;;;;;;0.41;63.81;100178.88;5052400;28;20087;-36
2022/01/28 01:23:29;;;;;;;20.80;10.20;;;;;;;0.44;62.78;100183.88;5052490;28;20036;-36
2022/01/28 01:26:15;;;;;;;;;;;;;;;0.46;61.99;100166.25;5052812;28;20033;-36
2022/01/28 01:28:41;;;;;;;18.38;9.20;;;;;;;0.24;61.96;100150.66;5051371;28;19913;-49
2022/01/28 01:31:13;;;;;;;19.80;9.20;;;;;;;0.37;62.66;100151.28;5052335;28;20033;-47
2022/01/28 01:33:45;;;;;;;16.73;9.35;;;;;;;0.52;61.75;100144.75;5052373;28;20083;-49
2022/01/28 01:36:10;;;;;;;18.30;9.15;;;;;;;0.50;63.12;100138.81;5052529;28;20052;-47
2022/01/28 01:38:38;;;;;;;18.90;9.43;;;;;;;0.44;62.65;100133.25;5052180;28;20122;-50
2022/01/28 01:41:08;;;;;;;19.77;9.77;;;;;;;0.75;62.21;100124.47;5052363;28;20071;-47
2022/01/28 01:43:51;;;;;;;20.52;9.98;;;;;;;0.52;60.47;100125.59;5051931;28;20055;-49
2022/01/28 01:52:03;;;;;;;19.42;8.80;;;;;;;0.31;63.55;100115.16;5051709;28;20032;-50
2022/01/28 01:54:31;;;;;;;17.42;8.90;;;;;;;0.20;62.72;100110.78;5051546;28;20530;-50
2022/01/28 01:56:56;;;;;;;19.20;9.15;;;;;;;0.24;63.32;100099.09;5051719;28;20024;-50
2022/01/28 01:59:22;;;;;;;18.10;8.93;;;;;;;0.38;62.39;100092.72;5050477;28;20029;-51
2022/01/28 02:01:47;;;;;;;16.02;8.60;;;;;;;0.39;60.61;100094.38;5052058;28;20020;-48
2022/01/28 02:04:12;;;;;;;15.38;7.93;;;;;;;0.46;61.82;100090.28;5051719;28;20020;-49
2022/01/28 02:06:40;;;;;;;17.08;9.25;;;;;;;0.54;62.36;100094.88;5051666;28;20024;-48
2022/01/28 02:09:05;;;;;;;15.45;8.05;;;;;;;0.32;61.67;100083.56;5051252;28;20065;-49
2022/01/28 02:11:31;;;;;;;17.83;8.90;;;;;;;0.48;61.67;100082.31;5051328;28;20495;-51
2022/01/28 02:13:56;;;;;;;18.42;9.10;;;;;;;0.54;60.42;100066.88;5051331;28;20091;-49
2022/01/28 02:16:22;;;;;;;21.17;8.88;;;;;;;0.31;62.02;100071.47;5051440;28;20456;-50
2022/01/28 02:18:47;;;;;;;19.60;8.90;;;;;;;0.08;62.12;100068.16;5050211;28;20029;-51
2022/01/28 02:21:15;;;;;;;17.25;8.75;;;;;;;0.33;62.00;100066.09;5051337;28;20381;-49
2022/01/28 02:23:42;;;;;;;17.95;9.35;;;;;;;0.19;62.22;100067.25;5049932;28;20025;-50
2022/01/28 02:26:13;;;;;;;16.67;9.05;;;;;;;0.39;61.74;100060.34;5051553;28;20159;-50
2022/01/28 02:28:39;;;;;;;15.98;8.10;;;;;;;0.07;60.84;100052.56;5051526;28;20053;-50
2022/01/28 02:31:05;;;;;;;15.05;8.23;;;;;;;-0.06;62.25;100050.16;5051055;28;20054;-48
2022/01/28 02:33:31;;;;;;;14.23;7.90;;;;;;;-0.09;60.85;100035.53;5051331;28;20108;-49
2022/01/28 02:36:03;;;;;;;18.38;8.73;;;;;;;0.14;62.58;100057.16;5051060;28;20056;-48
2022/01/28 02:38:28;;;;;;;15.77;8.13;;;;;;;0.19;62.20;100043.69;5050700;28;20423;-51
2022/01/28 02:41:02;;;;;;;18.52;8.90;;;;;;;0.19;60.92;100041.91;5050534;28;20471;-52
2022/01/28 02:43:40;;;;;;;15.35;7.60;;;;;;;0.07;60.87;100032.47;5050945;28;20129;-48
2022/01/28 02:46:12;;;;;;;16.23;8.10;;;;;;;0.21;61.77;100026.09;5051240;28;20037;-49
2022/01/28 02:48:41;;;;;;;16.42;8.38;;;;;;;0.14;61.87;100012.69;5050884;28;20033;-50
2022/01/28 02:51:17;;;;;;;15.00;7.72;;;;;;;-0.09;63.23;99998.91;5050717;28;20453;-49
2022/01/28 02:56:15;;;;;;;14.73;7.80;;;;;;;-0.40;62.71;100011.94;5050679;28;20445;-48
2022/01/28 02:58:41;;;;;;;17.48;8.32;;;;;;;-0.43;64.20;100021.81;5050817;28;20029;-48
2022/01/28 03:01:07;;;;;;;17.42;7.95;;;;;;;-0.34;63.62;100028.03;5050922;28;20029;-50
2022/01/28 03:03:32;;;;;;;14.45;7.80;;;;;;;-0.07;62.98;100038.03;5050915;28;20347;-52
2022/01/28 03:05:57;;;;;;;17.80;7.82;;;;;;;-0.41;61.39;100031.19;5050963;28;20025;-50
2022/01/28 03:08:26;;;;;;;15.10;7.78;;;;;;;-0.15;62.64;100030.81;5051065;28;20374;-50
2022/01/28 03:16:08;;;;;;;;;;;;;;;-0.01;62.70;100016.59;5051330;28;20029;-48
2022/01/28 03:18:44;;;;;;;17.00;7.53;;;;;;;-0.15;62.63;100020.38;5050808;28;19996;-48
2022/01/28 03:21:38;;;;;;;15.50;7.40;;;;;;;-0.10;62.64;100031.25;5050874;28;20036;-48
2022/01/28 03:24:06;;;;;;;17.45;8.45;;;;;;;-0.36;63.96;100033.44;5049287;28;20083;-48
2022/01/28 03:26:31;;;;;;;15.60;7.75;;;;;;;-0.18;61.47;100030.25;5050692;28;20495;-50
2022/01/28 03:28:57;;;;;;;15.10;8.55;;;;;;;-0.37;63.06;100031.75;5050937;28;20021;-49
2022/01/28 03:31:22;;;;;;;16.15;8.40;;;;;;;-0.29;63.81;100033.75;5050540;28;20022;-48
2022/01/28 03:33:48;;;;;;;16.25;7.70;;;;;;;-0.45;64.13;100028.94;5050342;28;20025;-48
2022/01/28 03:36:14;;;;;;;18.20;8.55;;;;;;;-0.53;64.27;100021.72;5051135;28;20044;-51
2022/01/28 03:38:40;;;;;;;17.40;9.57;;;;;;;-0.75;63.31;99998.28;5050537;28;20021;-51
2022/01/28 03:41:12;;;;;;;16.48;8.85;;;;;;;-0.36;63.81;100028.19;5049727;28;20082;-51
2022/01/28 03:43:37;;;;;;;20.15;9.27;;;;;;;-0.53;63.89;100019.13;5050357;28;20029;-51
2022/01/28 03:46:02;;;;;;;17.65;9.30;;;;;;;-0.43;64.33;100025.25;5050649;28;20040;-51
2022/01/28 03:48:28;;;;;;;26.25;10.20;;;;;;;-0.56;63.70;100021.97;5050376;28;20359;-52
2022/01/28 03:50:53;;;;;;;22.52;11.10;;;;;;;-0.56;65.11;100018.53;5051892;28;20025;-52
2022/01/28 03:53:19;;;;;;;20.67;10.48;;;;;;;-0.66;65.07;100008.00;5054183;28;20021;-49
2022/01/28 03:55:45;;;;;;;22.42;10.55;;;;;;;-0.60;65.52;100012.72;5053794;28;20393;-50
2022/01/28 03:58:11;;;;;;;22.58;10.60;;;;;;;-0.65;65.21;100014.88;5054325;28;20033;-36
2022/01/28 04:00:36;;;;;;;21.33;11.02;;;;;;;-0.93;63.84;100008.41;5054333;28;20017;-36
2022/01/28 04:03:13;;;;;;;21.52;9.88;;;;;;;-0.80;66.53;100002.09;5053990;28;20017;-36
2022/01/28 04:11:28;;;;;;;22.55;11.13;;;;;;;-0.88;66.23;100009.72;5053438;28;20071;-36
2022/01/28 04:13:49;;;;;;;;;;;;;;;-0.74;65.95;100010.38;5052434;28;20147;-36
2022/01/28 04:18:43;;;;;;;22.40;10.73;;;;;;;-0.79;65.65;99998.53;5053878;28;20031;-36
2022/01/28 04:21:08;;;;;;;24.23;10.93;;;;;;;-0.86;66.48;100007.81;5053735;28;20432;-36
2022/01/28 04:23:34;;;;;;;26.15;11.75;;;;;;;-0.68;66.16;100015.13;5053323;28;20025;-36
2022/01/28 04:25:59;;;;;;;55.67;25.80;;;;;;;-0.75;66.84;100008.75;5053303;28;20032;-36
2022/01/28 04:28:25;;;;;;;69.78;30.17;;;;;;;-0.79;64.85;99998.53;5053337;28;20036;-37
2022/01/28 04:30:50;;;;;;;69.63;31.60;;;;;;;-0.83;66.63;99994.50;5053261;28;20465;-36
2022/01/28 04:33:16;;;;;;;60.83;25.92;;;;;;;-0.72;65.66;99972.72;5053440;28;20054;-36
2022/01/28 04:35:41;;;;;;;27.92;11.43;;;;;;;-1.33;65.84;99988.94;5053294;28;20029;-36
2022/01/28 04:40:38;;;;;;;21.42;11.35;;;;;;;-1.33;67.94;99986.31;5053754;28;20107;-50
2022/01/28 04:45:38;;;;;;;21.67;9.90;;;;;;;-1.45;66.98;99982.88;5054391;28;20032;-51
2022/01/28 04:48:28;;;;;;;18.13;9.65;;;;;;;-1.68;68.22;99976.00;5052833;28;20025;-48
2022/01/28 04:53:40;;;;;;;19.08;9.07;;;;;;;0.96;76.96;99995.19;5052946;28;20037;-48
2022/01/28 05:04:50;;;;;;;15.15;8.25;;;;;;;2.70;54.74;99979.25;5051903;28;20459;-52
2022/01/28 05:27:41;;;;;;;39.30;18.30;;;;;;;-2.00;66.30;99967.13;5031219;28;20036;-50
2022/01/28 05:30:07;;;;;;;40.33;18.52;;;;;;;-1.94;66.70;99976.25;5031291;28;20044;-51
2022/01/28 05:32:32;;;;;;;40.78;17.45;;;;;;;-2.33;68.88;99975.72;5031177;28;20451;-52
2022/01/28 05:34:58;;;;;;;40.03;17.67;;;;;;;-2.38;71.31;99973.47;5031316;28;20033;-49
2022/01/28 05:37:23;;;;;;;47.50;21.42;;;;;;;-2.19;67.67;99972.06;5034106;28;20410;-51
2022/01/28 05:39:49;;;;;;;45.50;20.70;;;;;;;-2.17;68.89;99971.00;5031025;28;20032;-51
2022/01/28 05:42:14;;;;;;;35.55;16.27;;;;;;;-2.39;69.10;99971.78;5030586;28;20083;-49
2022/01/28 05:44:39;;;;;;;33.20;16.30;;;;;;;-2.31;69.31;99975.59;5030250;28;20036;-51
2022/01/28 05:47:05;;;;;;;39.55;17.60;;;;;;;-2.55;69.01;99966.06;5048921;28;20480;-51
2022/01/28 05:49:31;;;;;;;37.05;16.95;;;;;;;-2.39;68.84;99969.19;5050877;28;20021;-50
2022/01/28 05:51:56;;;;;;;37.10;18.15;;;;;;;-2.00;69.23;99971.47;5050424;28;20123;-48
2022/01/28 05:54:22;;;;;;;61.53;27.85;;;;;;;-1.60;70.10;99964.03;5048663;28;20373;-50
2022/01/28 05:56:47;;;;;;;151.35;62.70;;;;;;;-1.34;70.72;99981.22;5049368;28;20024;-47
2022/01/28 05:59:13;;;;;;;46.38;20.35;;;;;;;-1.26;67.50;99978.81;5050300;28;20405;-51
2022/01/28 06:01:38;;;;;;;55.08;24.83;;;;;;;-1.30;67.28;99991.28;5049767;28;20028;-50
2022/01/28 06:04:03;;;;;;;47.75;22.45;;;;;;;-1.20;66.63;99992.22;5049602;28;20021;-48
2022/01/28 06:06:30;;;;;;;43.92;20.70;;;;;;;-0.95;64.41;99979.81;5050282;28;20033;-50
2022/01/28 06:08:55;;;;;;;36.72;16.67;;;;;;;-1.12;64.25;99991.63;5049972;28;20037;-50
2022/01/28 06:11:21;;;;;;;34.08;15.60;;;;;;;-1.42;66.38;99987.03;5050311;28;20032;-53
2022/01/28 06:13:47;;;;;;;28.08;13.50;;;;;;;-1.53;67.84;99997.50;5050200;28;20104;-48
2022/01/28 06:16:14;;;;;;;32.83;14.77;;;;;;;-1.36;68.59;99999.59;5050361;28;20021;-49
2022/01/28 06:18:39;;;;;;;31.52;15.65;;;;;;;-1.14;66.55;100008.34;5050694;28;20024;-51
2022/01/28 06:21:05;;;;;;;30.67;15.07;;;;;;;-0.64;66.40;100003.47;5050832;28;20032;-51
2022/01/28 06:23:31;;;;;;;29.02;14.18;;;;;;;-0.21;63.54;100002.53;5050639;28;20032;-37
2022/01/28 06:25:56;;;;;;;32.03;15.63;;;;;;;-0.28;64.14;100002.22;5051171;28;20103;-36
2022/01/28 06:28:23;;;;;;;33.25;16.27;;;;;;;-0.47;65.39;100002.09;5050616;28;20032;-48
2022/01/28 06:30:49;;;;;;;40.50;19.25;;;;;;;-0.29;63.27;99966.56;5050574;28;20477;-36
2022/01/28 06:33:14;;;;;;;43.38;17.35;;;;;;;0.13;61.58;99989.25;5050681;28;20040;-38
2022/01/28 06:35:40;;;;;;;35.67;17.30;;;;;;;0.11;61.66;100002.44;5050278;28;20017;-37
2022/01/28 06:38:06;;;;;;;38.30;18.98;;;;;;;0.35;60.80;99994.31;5050576;28;20108;-35
2022/01/28 06:40:31;;;;;;;38.00;18.27;;;;;;;0.55;61.49;99997.84;5050520;28;20044;-37
2022/01/28 06:42:57;;;;;;;40.80;19.15;;;;;;;0.70;59.73;100000.91;5049052;28;20078;-37
2022/01/28 06:45:22;;;;;;;37.70;18.52;;;;;;;1.02;58.98;100022.66;5050158;28;20473;-37
2022/01/28 06:47:48;;;;;;;52.03;19.23;;;;;;;1.36;57.97;100010.00;5050137;28;20043;-37
2022/01/28 06:50:13;;;;;;;48.05;19.50;;;;;;;1.55;56.79;100012.63;5050336;28;20099;-38
2022/01/28 06:52:39;;;;;;;43.75;21.75;;;;;;;1.55;56.83;100004.75;5050397;28;20025;-37
2022/01/28 06:55:05;;;;;;;47.10;21.55;;;;;;;1.83;56.64;100009.28;5050219;28;20508;-37
2022/01/28 06:57:31;;;;;;;43.17;20.85;;;;;;;2.15;55.82;100003.69;5049956;28;20033;-38
2022/01/28 06:59:57;;;;;;;50.38;24.17;;;;;;;2.27;56.04;100002.53;5050163;28;20036;-38
2022/01/28 07:02:22;;;;;;;50.50;25.15;;;;;;;2.39;54.48;100007.63;5050238;28;20029;-37
2022/01/28 07:04:48;;;;;;;47.03;23.52;;;;;;;2.58;54.37;99988.31;5049385;28;20025;-37
2022/01/28 07:07:14;;;;;;;47.85;23.60;;;;;;;2.79;54.29;99985.44;5050245;28;20403;-39
2022/01/28 07:09:39;;;;;;;44.78;21.55;;;;;;;2.94;53.58;99986.59;5050087;28;20223;-37
2022/01/28 07:12:05;;;;;;;40.53;21.75;;;;;;;3.20;53.62;99988.50;5050330;28;20036;-37
2022/01/28 07:14:31;;;;;;;45.38;23.08;;;;;;;3.69;51.44;99986.28;5049909;28;20017;-37
2022/01/28 07:16:56;;;;;;;50.20;23.88;;;;;;;4.00;50.81;99977.94;5049975;28;20040;-38
2022/01/28 07:19:22;;;;;;;46.20;24.60;;;;;;;4.36;49.58;99991.00;5050037;28;20488;-38
2022/01/28 07:21:47;;;;;;;54.67;28.58;;;;;;;4.67;48.60;99992.13;5050038;28;20025;-36
2022/01/28 07:24:12;;;;;;;61.50;31.27;;;;;;;4.57;48.82;99988.81;5050188;28;20033;-51
2022/01/28 07:26:39;;;;;;;54.75;27.73;;;;;;;4.82;48.17;99995.00;5052854;28;20056;-51
2022/01/28 07:29:05;;;;;;;61.03;30.88;;;;;;;4.66;48.39;99985.22;5053596;28;20065;-50
2022/01/28 07:31:32;;;;;;;57.83;29.75;;;;;;;4.60;48.31;99979.75;5053703;28;20036;-49
2022/01/28 07:33:58;;;;;;;50.05;27.25;;;;;;;4.73;48.86;99976.66;5053543;28;20412;-52
2022/01/28 07:36:23;;;;;;;51.97;25.63;;;;;;;5.14;47.57;99969.69;5053651;28;20028;-51
2022/01/28 07:38:49;;;;;;;45.38;24.67;;;;;;;5.59;46.45;99975.47;5053945;28;20118;-54
2022/01/28 07:41:14;;;;;;;47.47;23.25;;;;;;;6.06;45.88;99980.09;5055615;28;20082;-51
2022/01/28 07:43:42;;;;;;;48.85;24.63;;;;;;;5.99;45.93;99976.47;5065573;28;20024;-51
2022/01/28 07:46:07;;;;;;;38.05;21.20;;;;;;;6.30;44.52;99971.25;5057672;28;20033;-51
2022/01/28 07:48:33;;;;;;;39.22;20.65;;;;;;;6.71;43.22;99973.75;5069375;28;20707;-51
2022/01/28 07:50:58;;;;;;;33.03;17.77;;;;;;;6.89;42.14;99973.47;5058732;28;20036;-51
2022/01/28 07:53:24;;;;;;;29.60;17.50;;;;;;;6.50;42.09;99969.06;5062318;28;20029;-49
2022/01/28 07:55:49;;;;;;;32.90;16.35;;;;;;;6.11;43.79;99969.84;5066505;28;20060;-49
2022/01/28 07:58:15;;;;;;;29.35;15.82;;;;;;;6.03;43.51;99964.56;5056437;28;20024;-50
2022/01/28 08:00:42;;;;;;;26.20;14.30;;;;;;;6.05;42.83;99959.94;5069529;28;20029;-52
2022/01/28 08:03:07;;;;;;;22.27;12.90;;;;;;;5.96;42.77;99969.72;5059926;28;20024;-52
2022/01/28 08:05:33;;;;;;;25.48;13.35;;;;;;;5.83;42.64;99964.91;5064260;28;20039;-50
2022/01/28 08:08:03;;;;;;;25.60;13.13;;;;;;;6.11;42.52;99976.94;5058821;28;20032;-50
2022/01/28 08:10:29;;;;;;;20.73;10.85;;;;;;;5.86;42.54;99961.09;5067984;28;20056;-50
2022/01/28 08:12:54;;;;;;;25.05;11.43;;;;;;;5.92;42.52;99962.22;5058409;28;20021;-48
2022/01/28 08:15:20;;;;;;;22.75;11.30;;;;;;;6.46;41.45;99957.16;5070554;28;20050;-47
2022/01/28 08:17:46;;;;;;;25.50;12.15;;;;;;;6.69;41.92;99956.41;5060194;28;20017;-52
2022/01/28 08:20:11;;;;;;;24.42;12.07;;;;;;;6.68;40.79;99960.03;5069609;28;20395;-48
2022/01/28 08:22:44;;;;;;;24.25;12.38;;;;;;;6.62;41.83;99969.50;5056222;28;20013;-49
2022/01/28 08:25:09;;;;;;;21.83;11.48;;;;;;;6.37;42.14;99974.06;5064721;28;20025;-50
2022/01/28 08:27:35;;;;;;;20.10;11.00;;;;;;;6.21;43.35;99974.94;5063689;28;20436;-51
2022/01/28 08:30:00;;;;;;;21.17;11.30;;;;;;;6.15;42.30;99957.94;5057987;28;20084;-51
2022/01/28 08:32:27;;;;;;;25.23;11.73;;;;;;;6.04;44.32;99953.00;5068973;28;20020;-52
2022/01/28 08:34:53;;;;;;;21.33;11.20;;;;;;;5.91;43.48;99953.50;5057937;28;20439;-49
2022/01/28 08:37:19;;;;;;;24.23;12.10;;;;;;;5.87;43.20;99957.47;5061003;28;20098;-48
2022/01/28 08:39:44;;;;;;;23.05;10.95;;;;;;;5.84;43.32;99955.97;5064948;28;20025;-49
2022/01/28 08:42:10;;;;;;;29.20;13.48;;;;;;;5.59;44.06;99949.88;5056047;28;20033;-50
2022/01/28 08:44:35;;;;;;;26.80;13.25;;;;;;;5.82;43.82;99960.59;5068592;28;20021;-47
2022/01/28 08:47:01;;;;;;;25.92;12.95;;;;;;;5.69;43.51;99952.34;5057998;28;20027;-48
2022/01/28 08:49:26;;;;;;;31.52;15.38;;;;;;;5.67;43.69;99952.53;5061935;28;20652;-49
2022/01/28 08:51:52;;;;;;;34.38;15.82;;;;;;;5.66;43.85;99958.00;5065887;28;20025;-51
2022/01/28 08:54:17;;;;;;;30.33;15.10;;;;;;;5.43;45.24;99958.66;5055421;28;20440;-52
2022/01/28 08:56:43;;;;;;;36.97;14.70;;;;;;;5.28;45.65;99963.75;5067948;28;20400;-49
2022/01/28 08:59:09;;;;;;;30.73;13.88;;;;;;;5.69;45.66;99968.19;5059975;28;20021;-50
2022/01/28 09:01:34;;;;;;;33.17;15.10;;;;;;;5.85;44.65;99962.91;5060954;28;20021;-50
2022/01/28 09:04:00;;;;;;;25.13;13.77;;;;;;;5.65;45.10;99959.81;5067124;28;20374;-51
2022/01/28 09:06:25;;;;;;;38.72;17.17;;;;;;;5.46;45.96;99957.47;5055347;28;20078;-53
2022/01/28 09:08:54;;;;;;;38.35;17.23;;;;;;;5.70;45.54;99945.28;5071927;28;20075;-48
2022/01/28 09:13:48;;;;;;;28.48;15.23;;;;;;;5.96;45.51;99922.16;5072112;28;20115;-50
2022/01/28 09:16:14;;;;;;;31.23;13.65;;;;;;;6.02;45.01;99915.38;5072291;28;20146;-51
2022/01/28 09:18:39;;;;;;;24.85;12.18;;;;;;;5.93;45.00;99916.34;5072160;28;20023;-48
2022/01/28 09:21:05;;;;;;;21.33;10.05;;;;;;;6.34;44.42;99921.50;5071961;28;20400;-51
2022/01/28 09:23:30;;;;;;;23.30;9.93;;;;;;;6.75;44.22;99921.34;5056470;28;20036;-50
2022/01/28 09:25:56;;;;;;;20.08;10.40;;;;;;;6.67;44.24;99916.09;5051496;28;20031;-51
2022/01/28 09:28:21;;;;;;;19.58;10.63;;;;;;;7.13;42.63;99909.00;5033712;28;20066;-49
2022/01/28 09:30:47;;;;;;;20.88;9.85;;;;;;;7.22;42.45;99894.72;5051647;28;20051;-50
2022/01/28 09:33:12;;;;;;;18.90;9.30;;;;;;;7.60;41.80;99884.13;5051644;28;20024;-51
2022/01/28 09:35:38;;;;;;;17.67;8.90;;;;;;;7.53;41.44;99883.19;5051678;28;20020;-49
2022/01/28 09:38:03;;;;;;;14.25;7.32;;;;;;;7.59;40.98;99877.16;5051400;28;20020;-51
2022/01/28 09:40:29;;;;;;;19.33;9.20;;;;;;;7.89;41.32;99871.91;5049990;28;20106;-49
2022/01/28 09:42:55;;;;;;;15.07;8.07;;;;;;;7.85;40.22;99869.81;5050165;28;20028;-50
2022/01/28 09:45:23;;;;;;;14.68;8.15;;;;;;;8.11;40.09;99877.25;5051385;28;20028;-52
2022/01/28 09:47:52;;;;;;;14.68;8.40;;;;;;;8.51;39.47;99867.19;5051061;28;20025;-48
2022/01/28 09:50:17;;;;;;;17.95;7.75;;;;;;;9.58;37.90;99861.84;5051092;28;20113;-48
2022/01/28 09:52:43;;;;;;;19.15;7.82;;;;;;;9.68;36.22;99850.84;5051402;28;20096;-48
2022/01/28 09:55:08;;;;;;;12.88;5.88;;;;;;;9.64;35.38;99838.97;5051587;28;20520;-49
2022/01/28 09:57:34;;;;;;;8.55;4.60;;;;;;;9.87;33.93;99829.91;5051291;28;20021;-51
2022/01/28 09:59:59;;;;;;;7.63;3.58;;;;;;;10.34;32.19;99829.13;5051359;28;20554;-48
2022/01/28 10:03:09;;;;;;;6.65;3.58;;;;;;;10.78;30.92;99819.00;5051046;28;20021;-47
2022/01/28 10:05:36;;;;;;;6.90;3.22;;;;;;;10.72;30.61;99815.28;5050775;28;20522;-48
2022/01/28 10:08:19;;;;;;;5.68;3.40;;;;;;;10.49;31.16;99806.84;5051138;28;20100;-49
2022/01/28 10:11:03;;;;;;;7.18;3.30;;;;;;;10.43;30.96;99811.13;5050777;28;20069;-50
2022/01/28 10:13:43;;;;;;;11.27;3.95;;;;;;;10.77;30.92;99801.38;5050876;28;20025;-52
2022/01/28 10:16:24;;;;;;;8.00;3.25;;;;;;;11.17;29.71;99801.38;5051309;28;20028;-50
2022/01/28 10:18:56;;;;;;;7.60;2.90;;;;;;;10.88;30.02;99790.13;5050746;28;20102;-49
2022/01/28 10:21:37;;;;;;;4.82;2.38;;;;;;;10.84;29.94;99786.22;5050621;28;20036;-50
2022/01/28 10:24:10;;;;;;;3.72;2.25;;;;;;;10.85;29.77;99789.69;5050504;28;20024;-47
2022/01/28 10:26:41;;;;;;;3.42;2.10;;;;;;;11.65;28.67;99795.78;5050630;28;20021;-49
2022/01/28 10:29:30;;;;;;;2.90;2.05;;;;;;;11.77;27.72;99795.16;5050362;28;20024;-50
2022/01/28 10:32:11;;;;;;;6.72;2.35;;;;;;;11.37;28.53;99797.91;5050628;28;20029;-52
2022/01/28 10:34:43;;;;;;;6.15;2.30;;;;;;;11.75;29.12;99798.00;5050544;28;20090;-51
2022/01/28 10:37:25;;;;;;;5.32;2.80;;;;;;;12.32;27.62;99795.56;5051098;28;20115;-50
2022/01/28 10:40:01;;;;;;;3.80;2.30;;;;;;;12.80;27.10;99792.38;5050339;28;20107;-51
2022/01/28 10:42:51;;;;;;;9.50;2.50;;;;;;;12.77;27.57;99786.63;5050172;28;20049;-52
2022/01/28 10:45:25;;;;;;;3.33;2.10;;;;;;;12.04;27.49;99786.03;5050401;28;20028;-49
2022/01/28 10:47:54;;;;;;;5.57;2.28;;;;;;;12.25;27.32;99784.09;5049745;28;20017;-50
2022/01/28 10:50:20;;;;;;;5.47;2.50;;;;;;;12.59;26.66;99776.72;5050447;28;20029;-49
2022/01/28 10:52:46;;;;;;;7.40;2.55;;;;;;;12.31;27.57;99772.56;5049918;28;20029;-49
2022/01/28 10:55:18;;;;;;;5.50;2.50;;;;;;;12.11;27.92;99788.69;5049912;28;20139;-48
2022/01/28 10:57:58;;;;;;;9.55;2.75;;;;;;;12.64;27.00;99790.22;5050256;28;20025;-51
2022/01/28 11:00:26;;;;;;;7.57;2.65;;;;;;;12.71;27.26;99799.00;5050910;28;20032;-48
2022/01/28 11:02:53;;;;;;;7.25;2.60;;;;;;;12.19;27.92;99790.28;5054523;28;20061;-49
2022/01/28 11:05:18;;;;;;;6.28;2.67;;;;;;;12.02;28.66;99793.44;5052655;28;20119;-50
2022/01/28 11:07:44;;;;;;;12.23;3.00;;;;;;;12.31;27.97;99801.91;5054186;28;20025;-51
2022/01/28 11:10:09;;;;;;;3.97;2.67;;;;;;;12.59;27.47;99798.06;5052842;28;20083;-51
2022/01/28 11:12:35;;;;;;;6.32;2.72;;;;;;;12.32;28.33;99804.38;5052663;28;20036;-51
2022/01/28 11:15:00;;;;;;;5.93;2.53;;;;;;;12.02;28.72;99796.09;5052530;28;20131;-49
2022/01/28 11:17:26;;;;;;;7.40;2.72;;;;;;;12.09;28.95;99791.56;5053636;28;20029;-48
2022/01/28 11:19:52;;;;;;;7.53;3.10;;;;;;;12.51;28.46;99791.94;5054239;28;20025;-48
2022/01/28 11:22:33;;;;;;;5.82;2.97;;;;;;;12.00;28.61;99763.47;5036191;28;20017;-50
2022/01/28 11:25:28;;;;;;;5.68;3.47;;;;;;;11.95;28.88;99791.81;5052831;28;20040;-49
2022/01/28 11:27:53;;;;;;;5.60;3.35;;;;;;;11.78;30.13;99794.09;5038327;28;20013;-51
2022/01/28 11:30:23;;;;;;;8.05;3.90;;;;;;;12.36;28.86;99803.97;5053412;28;20045;-49
2022/01/28 11:33:02;;;;;;;;;;;;;;;11.95;28.87;99789.97;5053016;28;20036;-50
2022/01/28 11:35:38;;;;;;;6.88;3.63;;;;;;;11.66;30.29;99785.94;5051528;28;19908;-51
2022/01/28 11:38:23;;;;;;;5.70;3.40;;;;;;;11.85;29.54;99777.03;5050157;28;20025;-50
2022/01/28 11:40:58;;;;;;;6.20;3.50;;;;;;;12.26;29.60;99793.72;5051587;28;20017;-49
2022/01/28 11:43:30;;;;;;;6.72;4.15;;;;;;;12.55;28.55;99786.19;5050689;28;20021;-51
2022/01/28 11:46:06;;;;;;;8.82;3.70;;;;;;;12.04;29.32;99794.03;5053124;28;20021;-50
2022/01/28 11:48:58;;;;;;;5.40;3.20;;;;;;;11.73;30.34;99790.22;5051572;28;20122;-50
2022/01/28 11:51:32;;;;;;;8.63;3.53;;;;;;;12.58;29.55;99802.56;5050466;28;20033;-49
2022/01/28 11:53:59;;;;;;;10.30;3.88;;;;;;;12.38;29.22;99802.69;5053210;28;20174;-50
2022/01/28 11:56:25;;;;;;;6.80;3.72;;;;;;;12.04;29.46;99791.38;5052969;28;20546;-50
2022/01/28 11:58:57;;;;;;;6.10;3.35;;;;;;;12.08;30.44;99805.91;5051666;28;20032;-49
2022/01/28 12:01:35;;;;;;;8.88;3.30;;;;;;;12.56;29.78;99788.63;5050538;28;20028;-52
2022/01/28 12:04:26;;;;;;;8.70;3.70;;;;;;;12.54;29.90;99792.53;5052572;28;20096;-52
2022/01/28 12:07:07;;;;;;;11.10;3.30;;;;;;;12.02;30.44;99789.94;5051214;28;20477;-49
2022/01/28 12:09:34;;;;;;;9.27;3.10;;;;;;;11.64;30.31;99780.81;5051430;28;20061;-50
2022/01/28 12:12:00;;;;;;;10.45;3.10;;;;;;;12.44;30.36;99803.69;5052401;28;20074;-49
2022/01/28 12:14:50;;;;;;;6.80;2.83;;;;;;;12.27;29.96;99787.38;5052830;28;20408;-51
2022/01/28 12:17:35;;;;;;;8.32;2.63;;;;;;;11.80;30.93;99786.72;5052826;28;20076;-52
2022/01/28 12:20:36;;;;;;;5.93;2.65;;;;;;;11.67;31.85;99790.22;5053167;28;20059;-49
2022/01/28 12:23:08;;;;;;;7.25;2.80;;;;;;;11.93;31.00;99789.34;5052507;28;20451;-50
2022/01/28 12:25:36;;;;;;;4.50;2.33;;;;;;;12.17;30.38;99787.81;5052706;28;20094;-52
2022/01/28 12:28:10;;;;;;;5.75;2.65;;;;;;;12.28;31.17;99779.16;5052751;28;20147;-50
2022/01/28 12:30:36;;;;;;;4.78;2.55;;;;;;;12.57;30.33;99784.94;5052994;28;20037;-52
2022/01/28 12:33:01;;;;;;;8.27;2.80;;;;;;;12.76;30.65;99788.50;5052900;28;20033;-50
2022/01/28 12:35:27;;;;;;;7.88;2.80;;;;;;;13.08;29.73;99783.13;5052443;28;20079;-49
2022/01/28 12:37:59;;;;;;;7.28;2.67;;;;;;;12.73;30.46;99788.91;5052614;28;20029;-49
2022/01/28 12:40:29;;;;;;;9.18;2.70;;;;;;;12.60;31.01;99781.00;5052825;28;20035;-49
2022/01/28 12:42:54;;;;;;;;;;;;;;;12.60;31.04;99773.00;5052958;28;20033;-49
2022/01/28 12:45:19;;;;;;;4.43;2.60;;;;;;;13.09;30.41;99776.72;5052268;28;19909;-49
2022/01/28 12:47:45;;;;;;;8.13;2.60;;;;;;;12.99;29.92;99773.75;5052290;28;20067;-49
2022/01/28 12:50:10;;;;;;;6.15;2.53;;;;;;;12.57;30.90;99782.25;5052313;28;20029;-51
2022/01/28 12:52:36;;;;;;;6.18;2.88;;;;;;;12.17;32.05;99789.69;5034292;28;20059;-52
2022/01/28 12:55:02;;;;;;;4.65;2.63;;;;;;;11.89;32.23;99788.97;5052209;28;20037;-52
2022/01/28 12:57:27;;;;;;;4.80;2.63;;;;;;;12.19;32.11;99774.28;5052130;28;20480;-49
2022/01/28 12:59:53;;;;;;;5.43;2.90;;;;;;;11.93;32.38;99776.03;5052355;28;20032;-48